Terminal Aerodrome Forecast
Issued by NWS Shreveport, LA

Home | Current Version | Previous Version | Text Only | Print | Product List | Glossary On
Versions: 1 2 3 4 5 6 7 8 9 10 11 12 13 14 15 16 17 18 19 20
000
FTUS44 KSHV 231145
TAFMLU
TAF
KMLU 231145Z 2312/2412 VRB03KT P6SM SCT250
     FM231600 14007KT P6SM BKN035 BKN250
     FM240000 14003KT P6SM SCT040 OVC150
     FM240600 13003KT P6SM VCSH BKN030 OVC100=

USA.gov is the U.S. government's official web portal to all federal, state and local government web resources and services.